Time;durP1;ratioP1;P1;durP2;ratioP2;P2;SDS_P1;SDS_P2;PMS_P1;PMS_P2;Temp;Humidity;BMP_temperature;BMP_pressure;BME280_temperature;BME280_humidity;BME280_pressure;Samples;Min_cycle;Max_cycle;Signal;HPM_P1;HPM_P2
2022/05/08 00:01:51;;;;;;;363.03;97.87;;;;;;;;;;5053819;28;20469;-72
2022/05/08 00:04:25;;;;;;;377.13;106.13;;;;;;;;;;5049857;28;20470;-72
2022/05/08 00:06:53;;;;;;;370.43;97.30;;;;;;;;;;5056274;28;20537;-72
2022/05/08 00:09:24;;;;;;;371.63;106.37;;;;;;;;;;5064602;28;20476;-72
2022/05/08 00:11:53;;;;;;;363.80;98.20;;;;;;;;;;5071693;28;20453;-72
2022/05/08 00:14:22;;;;;;;364.43;101.37;;;;;;;;;;5058877;28;20464;-71
2022/05/08 00:16:55;;;;;;;371.57;104.60;;;;;;;;;;5054595;28;21497;-72
2022/05/08 00:19:23;;;;;;;359.57;97.20;;;;;;;;;;5053317;28;20462;-72
2022/05/08 00:21:57;;;;;;;365.30;98.30;;;;;;;;;;5053958;28;20523;-71
2022/05/08 00:24:35;;;;;;;372.37;102.40;;;;;;;;;;5067419;28;20472;-72
2022/05/08 00:27:19;;;;;;;364.73;102.90;;;;;;;;;;5048947;28;20731;-72
2022/05/08 00:29:48;;;;;;;373.77;103.70;;;;;;;;;;5054321;28;20469;-72
2022/05/08 00:32:39;;;;;;;370.73;104.23;;;;;;;;;;5056326;28;20476;-73
2022/05/08 00:35:14;;;;;;;377.50;108.57;;;;;;;;;;5058280;28;20922;-72
2022/05/08 00:37:49;;;;;;;364.80;101.60;;;;;;;;;;5055932;28;20460;-73
2022/05/08 00:40:44;;;;;;;371.07;104.27;;;;;;;;;;5054892;28;20941;-72
2022/05/08 00:46:22;;;;;;;370.47;106.37;;;;;;;;;;5034263;28;20551;-71
2022/05/08 00:49:03;;;;;;;383.90;111.27;;;;;;;;;;5045506;28;20788;-72
2022/05/08 00:51:35;;;;;;;361.80;101.80;;;;;;;;;;5048634;28;20755;-72
2022/05/08 00:54:06;;;;;;;355.70;100.03;;;;;;;;;;5055419;28;20480;-73
2022/05/08 00:56:35;;;;;;;366.10;100.70;;;;;;;;;;5053400;28;20493;-72
2022/05/08 00:59:03;;;;;;;365.80;99.43;;;;;;;;;;5044949;28;20509;-71
2022/05/08 01:01:31;;;;;;;372.33;104.10;;;;;;;;;;5052443;28;20469;-71
2022/05/08 01:04:04;;;;;;;368.17;104.87;;;;;;;;;;5054728;28;20499;-71
2022/05/08 01:06:33;;;;;;;372.70;96.80;;;;;;;;;;5055380;28;20473;-71
2022/05/08 01:09:07;;;;;;;372.87;102.97;;;;;;;;;;5057612;28;20479;-72
2022/05/08 01:11:35;;;;;;;363.80;96.57;;;;;;;;;;5034552;28;20466;-71
2022/05/08 01:14:03;;;;;;;366.33;102.10;;;;;;;;;;5037095;28;20462;-71
2022/05/08 01:16:31;;;;;;;363.20;92.67;;;;;;;;;;5053986;28;20836;-71
2022/05/08 01:19:01;;;;;;;372.20;101.27;;;;;;;;;;5053543;28;20885;-71
2022/05/08 01:21:33;;;;;;;366.37;99.17;;;;;;;;;;5054915;28;20473;-71
2022/05/08 01:24:01;;;;;;;371.30;102.53;;;;;;;;;;5054369;28;20857;-71
2022/05/08 01:26:31;;;;;;;365.07;100.10;;;;;;;;;;5053321;28;20488;-71
2022/05/08 01:29:00;;;;;;;369.77;108.00;;;;;;;;;;5068355;28;20476;-71
2022/05/08 01:31:30;;;;;;;353.73;94.90;;;;;;;;;;5063516;28;20464;-72
2022/05/08 01:33:59;;;;;;;372.50;102.83;;;;;;;;;;5056792;28;20543;-71
2022/05/08 01:36:28;;;;;;;358.60;95.43;;;;;;;;;;5053395;28;20496;-70
2022/05/08 01:38:58;;;;;;;349.00;93.40;;;;;;;;;;5054388;28;20541;-71
2022/05/08 01:41:28;;;;;;;376.80;100.80;;;;;;;;;;5052509;28;20461;-72
2022/05/08 01:44:06;;;;;;;358.87;95.77;;;;;;;;;;5052912;28;21114;-71
2022/05/08 01:46:38;;;;;;;359.57;101.23;;;;;;;;;;5055788;28;20496;-72
2022/05/08 01:49:11;;;;;;;364.17;97.60;;;;;;;;;;5056485;28;20500;-72
2022/05/08 01:51:41;;;;;;;361.07;94.60;;;;;;;;;;5058276;28;20772;-72
2022/05/08 01:54:15;;;;;;;363.37;95.53;;;;;;;;;;5060956;28;20592;-71
2022/05/08 01:56:46;;;;;;;355.53;94.87;;;;;;;;;;5055130;28;20497;-73
2022/05/08 01:59:14;;;;;;;357.17;99.50;;;;;;;;;;5055812;28;20510;-72
2022/05/08 02:01:42;;;;;;;363.17;97.77;;;;;;;;;;5069972;28;20488;-72
2022/05/08 02:04:15;;;;;;;358.37;94.70;;;;;;;;;;5064936;28;20480;-72
2022/05/08 02:06:45;;;;;;;371.20;97.67;;;;;;;;;;5058820;28;20493;-72
2022/05/08 02:09:26;;;;;;;357.50;90.77;;;;;;;;;;5059174;28;20852;-70
2022/05/08 02:11:54;;;;;;;359.40;92.57;;;;;;;;;;5063603;28;20475;-71
2022/05/08 02:14:31;;;;;;;372.50;101.03;;;;;;;;;;5076778;28;20456;-72
2022/05/08 02:17:01;;;;;;;360.63;91.40;;;;;;;;;;5068971;28;20523;-71
2022/05/08 02:22:33;;;;;;;352.43;90.27;;;;;;;;;;5076637;28;20461;-72
2022/05/08 02:25:02;;;;;;;353.63;98.73;;;;;;;;;;5077243;28;20480;-71
2022/05/08 02:27:36;;;;;;;358.00;92.10;;;;;;;;;;5062780;28;20555;-71
2022/05/08 02:30:05;;;;;;;348.33;87.90;;;;;;;;;;5074940;28;21113;-71
2022/05/08 02:32:36;;;;;;;350.70;87.43;;;;;;;;;;5064595;28;20463;-71
2022/05/08 02:35:04;;;;;;;353.90;89.20;;;;;;;;;;5057268;28;20461;-71
2022/05/08 02:37:32;;;;;;;353.03;91.30;;;;;;;;;;5056018;28;20531;-71
2022/05/08 02:40:00;;;;;;;345.87;94.77;;;;;;;;;;5056850;28;20487;-71
2022/05/08 02:42:32;;;;;;;362.43;94.57;;;;;;;;;;5056904;28;20461;-71
2022/05/08 02:45:08;;;;;;;357.33;93.70;;;;;;;;;;5057097;28;20804;-71
2022/05/08 02:47:37;;;;;;;341.07;88.20;;;;;;;;;;5047466;28;21135;-71
2022/05/08 02:50:15;;;;;;;359.83;93.23;;;;;;;;;;5056995;28;20527;-72
2022/05/08 02:52:47;;;;;;;339.00;83.10;;;;;;;;;;5056407;28;21037;-72
2022/05/08 03:00:48;;;;;;;351.53;90.73;;;;;;;;;;5053481;28;20506;-71
2022/05/08 03:03:17;;;;;;;322.03;90.57;;;;;;;;;;5061476;28;20444;-71
2022/05/08 03:05:47;;;;;;;357.27;92.30;;;;;;;;;;5066191;28;20523;-71
2022/05/08 03:08:15;;;;;;;323.20;95.43;;;;;;;;;;5074120;28;20461;-71
2022/05/08 03:13:36;;;;;;;352.17;93.93;;;;;;;;;;5057002;28;20460;-72
2022/05/08 03:16:04;;;;;;;345.23;84.27;;;;;;;;;;5060298;28;20581;-71
2022/05/08 03:18:38;;;;;;;354.20;92.40;;;;;;;;;;5058747;28;20865;-72
2022/05/08 03:21:06;;;;;;;351.10;84.37;;;;;;;;;;5058720;28;20479;-72
2022/05/08 03:23:35;;;;;;;348.00;91.03;;;;;;;;;;5057407;28;20464;-72
2022/05/08 03:26:04;;;;;;;358.50;90.70;;;;;;;;;;5062221;28;21040;-72
2022/05/08 03:28:32;;;;;;;350.83;91.03;;;;;;;;;;5057515;28;20460;-71
2022/05/08 03:31:02;;;;;;;355.00;86.67;;;;;;;;;;5054409;28;20465;-71
2022/05/08 03:33:35;;;;;;;353.70;92.47;;;;;;;;;;5036462;28;20466;-71
2022/05/08 03:36:04;;;;;;;360.07;89.90;;;;;;;;;;5036023;28;20483;-72
2022/05/08 03:38:33;;;;;;;347.73;90.17;;;;;;;;;;5036103;28;20469;-71
2022/05/08 03:41:03;;;;;;;355.23;94.17;;;;;;;;;;5036876;28;20867;-71
2022/05/08 03:43:31;;;;;;;365.93;98.60;;;;;;;;;;5036377;28;20470;-71
2022/05/08 03:46:01;;;;;;;368.53;96.57;;;;;;;;;;5042836;28;20489;-71
2022/05/08 03:48:29;;;;;;;358.77;92.97;;;;;;;;;;5052066;28;20865;-71
2022/05/08 03:50:57;;;;;;;359.27;94.33;;;;;;;;;;5056423;28;20476;-71
2022/05/08 03:53:25;;;;;;;357.50;93.83;;;;;;;;;;5055496;28;21140;-71
2022/05/08 03:55:53;;;;;;;360.40;93.20;;;;;;;;;;5056308;28;20568;-71
2022/05/08 03:58:23;;;;;;;352.30;86.80;;;;;;;;;;5056389;28;20489;-72
2022/05/08 04:00:51;;;;;;;348.63;84.43;;;;;;;;;;5055958;28;20476;-72
2022/05/08 04:03:21;;;;;;;369.40;101.27;;;;;;;;;;5055257;28;20508;-71
2022/05/08 04:05:48;;;;;;;353.87;85.03;;;;;;;;;;5055039;28;20535;-72
2022/05/08 04:08:16;;;;;;;357.53;92.17;;;;;;;;;;5055835;28;20467;-71
2022/05/08 04:10:44;;;;;;;356.20;89.60;;;;;;;;;;5054492;28;20503;-71
2022/05/08 04:13:12;;;;;;;346.60;89.67;;;;;;;;;;5055386;28;20461;-71
2022/05/08 04:18:27;;;;;;;342.80;84.80;;;;;;;;;;5056203;28;20452;-70
2022/05/08 04:20:55;;;;;;;362.37;95.43;;;;;;;;;;5056405;28;20485;-71
2022/05/08 04:26:09;;;;;;;352.70;91.43;;;;;;;;;;5073749;28;20490;-70
2022/05/08 04:28:38;;;;;;;336.67;92.30;;;;;;;;;;5070726;28;20467;-71
2022/05/08 04:31:06;;;;;;;359.83;96.20;;;;;;;;;;5064413;28;20540;-69
2022/05/08 04:33:36;;;;;;;371.00;97.90;;;;;;;;;;5057856;28;20534;-70
2022/05/08 04:36:03;;;;;;;348.20;92.63;;;;;;;;;;5055293;28;20493;-70
2022/05/08 04:38:34;;;;;;;345.17;85.10;;;;;;;;;;5054908;28;20535;-71
2022/05/08 04:41:05;;;;;;;355.57;91.97;;;;;;;;;;5054143;28;20889;-70
2022/05/08 04:43:33;;;;;;;353.17;89.60;;;;;;;;;;5054302;28;20541;-70
2022/05/08 04:46:01;;;;;;;361.17;92.23;;;;;;;;;;5054688;28;20492;-71
2022/05/08 04:48:29;;;;;;;346.33;86.10;;;;;;;;;;5053010;28;20453;-70
2022/05/08 04:50:58;;;;;;;344.13;87.10;;;;;;;;;;5055643;28;20530;-72
2022/05/08 04:53:26;;;;;;;351.13;91.27;;;;;;;;;;5054931;28;20453;-71
2022/05/08 04:55:54;;;;;;;346.80;89.90;;;;;;;;;;5054075;28;20765;-71
2022/05/08 04:58:22;;;;;;;349.47;90.80;;;;;;;;;;5054076;28;20457;-71
2022/05/08 05:00:50;;;;;;;362.47;93.17;;;;;;;;;;5048549;28;20462;-71
2022/05/08 05:03:18;;;;;;;361.70;97.37;;;;;;;;;;5031609;28;20481;-71
2022/05/08 05:05:45;;;;;;;359.53;95.47;;;;;;;;;;5042701;28;20461;-71
2022/05/08 05:08:15;;;;;;;373.90;102.90;;;;;;;;;;5053848;28;20469;-71
2022/05/08 05:10:43;;;;;;;369.10;98.63;;;;;;;;;;5054085;28;20468;-70
2022/05/08 05:13:11;;;;;;;366.43;98.70;;;;;;;;;;5053814;28;20464;-71
2022/05/08 05:15:40;;;;;;;358.47;95.80;;;;;;;;;;5054428;28;20461;-70
2022/05/08 05:18:08;;;;;;;379.60;104.97;;;;;;;;;;5054496;28;20461;-69
2022/05/08 05:20:36;;;;;;;368.13;98.80;;;;;;;;;;5053253;28;20555;-70
2022/05/08 05:23:04;;;;;;;373.03;115.53;;;;;;;;;;5053880;28;20468;-70
2022/05/08 05:25:38;;;;;;;392.33;115.37;;;;;;;;;;5050186;28;20876;-72
2022/05/08 05:28:11;;;;;;;385.33;114.53;;;;;;;;;;5042493;28;20467;-71
2022/05/08 05:30:47;;;;;;;373.90;111.03;;;;;;;;;;5053975;28;20565;-70
2022/05/08 05:33:18;;;;;;;375.57;108.47;;;;;;;;;;5054055;28;20733;-72
2022/05/08 05:35:48;;;;;;;383.53;115.63;;;;;;;;;;5053843;28;20497;-71
2022/05/08 05:38:18;;;;;;;374.33;104.40;;;;;;;;;;5054681;28;20526;-72
2022/05/08 05:40:47;;;;;;;382.20;112.10;;;;;;;;;;5051205;28;20450;-70
2022/05/08 05:43:15;;;;;;;376.97;117.53;;;;;;;;;;5053900;28;20734;-71
2022/05/08 05:45:43;;;;;;;333.77;109.73;;;;;;;;;;5053894;28;20781;-71
2022/05/08 05:48:10;;;;;;;361.33;114.17;;;;;;;;;;5053535;28;20482;-71
2022/05/08 05:50:38;;;;;;;379.13;121.63;;;;;;;;;;5038477;28;20493;-71
2022/05/08 05:53:06;;;;;;;380.87;111.57;;;;;;;;;;5054715;28;20795;-70
2022/05/08 05:55:34;;;;;;;382.70;113.67;;;;;;;;;;5053630;28;20477;-70
2022/05/08 05:58:03;;;;;;;374.57;112.83;;;;;;;;;;5053557;28;20492;-70
2022/05/08 06:00:33;;;;;;;372.60;110.57;;;;;;;;;;5054187;28;20465;-71
2022/05/08 06:03:01;;;;;;;370.43;105.83;;;;;;;;;;5053247;28;20457;-71
2022/05/08 06:05:32;;;;;;;362.70;114.60;;;;;;;;;;5053333;28;20461;-70
2022/05/08 06:08:02;;;;;;;369.73;109.80;;;;;;;;;;5053318;28;20457;-70
2022/05/08 06:10:30;;;;;;;380.80;113.63;;;;;;;;;;5053893;28;20496;-69
2022/05/08 06:12:59;;;;;;;370.43;103.13;;;;;;;;;;5053876;28;20548;-70
2022/05/08 06:15:33;;;;;;;373.20;108.23;;;;;;;;;;5052726;28;20882;-70
2022/05/08 06:18:01;;;;;;;374.57;112.77;;;;;;;;;;5052928;28;20583;-70
2022/05/08 06:20:29;;;;;;;365.47;105.73;;;;;;;;;;5053905;28;20870;-70
2022/05/08 06:22:58;;;;;;;367.03;105.60;;;;;;;;;;5034804;28;20470;-70
2022/05/08 06:25:26;;;;;;;382.23;105.00;;;;;;;;;;5052398;28;20462;-70
2022/05/08 06:27:58;;;;;;;364.60;101.67;;;;;;;;;;5053341;28;20464;-69
2022/05/08 06:30:26;;;;;;;368.03;95.30;;;;;;;;;;5053625;28;20477;-71
2022/05/08 06:33:00;;;;;;;359.30;95.53;;;;;;;;;;5053850;28;20461;-70
2022/05/08 06:35:27;;;;;;;378.87;108.83;;;;;;;;;;5055432;28;20461;-71
2022/05/08 06:37:55;;;;;;;372.80;102.50;;;;;;;;;;5057082;28;20843;-71
2022/05/08 06:40:26;;;;;;;373.20;98.27;;;;;;;;;;5057466;28;20782;-71
2022/05/08 06:42:54;;;;;;;363.67;94.17;;;;;;;;;;5057396;28;20467;-70
2022/05/08 06:45:25;;;;;;;371.30;99.93;;;;;;;;;;5057768;28;20457;-71
2022/05/08 06:47:53;;;;;;;370.87;105.23;;;;;;;;;;5057332;28;20873;-71
2022/05/08 06:50:22;;;;;;;363.00;99.57;;;;;;;;;;5057470;28;20456;-71
2022/05/08 06:52:53;;;;;;;364.10;99.93;;;;;;;;;;5057374;28;20547;-70
2022/05/08 06:55:22;;;;;;;360.93;95.97;;;;;;;;;;5056185;28;20546;-70
2022/05/08 06:57:50;;;;;;;368.23;103.50;;;;;;;;;;5056441;28;20584;-70
2022/05/08 07:03:04;;;;;;;379.97;101.77;;;;;;;;;;5057018;28;20779;-70
2022/05/08 07:05:36;;;;;;;372.90;107.43;;;;;;;;;;5056821;28;20497;-70
2022/05/08 07:08:04;;;;;;;380.57;107.67;;;;;;;;;;5056842;28;20540;-70
2022/05/08 07:10:32;;;;;;;369.13;107.10;;;;;;;;;;5056383;28;20501;-71
2022/05/08 07:13:00;;;;;;;361.33;105.20;;;;;;;;;;5056495;28;20459;-70
2022/05/08 07:15:27;;;;;;;373.47;109.97;;;;;;;;;;5056978;28;20465;-70
2022/05/08 07:17:55;;;;;;;371.77;114.20;;;;;;;;;;5056371;28;20481;-70
2022/05/08 07:20:23;;;;;;;360.20;108.73;;;;;;;;;;5054113;28;20572;-70
2022/05/08 07:22:53;;;;;;;350.93;109.07;;;;;;;;;;5055796;28;20445;-70
2022/05/08 07:25:21;;;;;;;365.93;106.50;;;;;;;;;;5056718;28;20702;-70
2022/05/08 07:27:48;;;;;;;346.80;109.63;;;;;;;;;;5055802;28;20485;-70
2022/05/08 07:30:16;;;;;;;362.27;109.17;;;;;;;;;;5057007;28;20465;-70
2022/05/08 07:32:46;;;;;;;369.47;115.47;;;;;;;;;;5055276;28;20572;-70
2022/05/08 07:38:05;;;;;;;365.33;99.10;;;;;;;;;;5055085;28;20476;-70
2022/05/08 07:40:33;;;;;;;366.97;106.00;;;;;;;;;;5055633;28;20750;-70
2022/05/08 07:43:01;;;;;;;366.93;106.60;;;;;;;;;;5051644;28;20531;-70
2022/05/08 07:45:29;;;;;;;363.53;105.67;;;;;;;;;;5054381;28;20457;-70
2022/05/08 07:48:02;;;;;;;363.20;98.00;;;;;;;;;;5055092;28;20527;-70
2022/05/08 07:50:30;;;;;;;364.73;107.67;;;;;;;;;;5043129;28;20766;-70
2022/05/08 07:52:57;;;;;;;357.40;98.83;;;;;;;;;;5051415;28;20487;-70
2022/05/08 07:55:28;;;;;;;369.10;111.87;;;;;;;;;;5055127;28;20802;-70
2022/05/08 07:57:55;;;;;;;361.07;105.00;;;;;;;;;;5054532;28;20485;-70
2022/05/08 08:00:23;;;;;;;367.77;108.67;;;;;;;;;;5055900;28;20553;-69
2022/05/08 08:02:51;;;;;;;368.07;104.83;;;;;;;;;;5054976;28;20457;-69
2022/05/08 08:05:19;;;;;;;367.80;109.60;;;;;;;;;;5054443;28;20823;-70
2022/05/08 08:07:47;;;;;;;363.60;105.37;;;;;;;;;;5054279;28;20495;-70
2022/05/08 08:10:14;;;;;;;365.23;101.97;;;;;;;;;;5054912;28;20901;-69
2022/05/08 08:13:07;;;;;;;369.77;117.70;;;;;;;;;;5053973;28;20469;-69
2022/05/08 08:15:36;;;;;;;368.43;106.73;;;;;;;;;;5053646;28;20461;-69
2022/05/08 08:18:04;;;;;;;368.67;108.73;;;;;;;;;;5053404;28;20913;-70
2022/05/08 08:20:32;;;;;;;366.40;110.97;;;;;;;;;;5052815;28;20960;-70
2022/05/08 08:23:00;;;;;;;369.27;115.57;;;;;;;;;;5054745;28;20553;-70
2022/05/08 08:25:28;;;;;;;385.30;125.97;;;;;;;;;;5054517;28;20450;-70
2022/05/08 08:27:56;;;;;;;380.60;116.87;;;;;;;;;;5054478;28;20789;-69
2022/05/08 08:30:24;;;;;;;379.00;120.63;;;;;;;;;;5052941;28;20457;-70
2022/05/08 08:32:53;;;;;;;385.50;124.50;;;;;;;;;;5053875;28;20477;-69
2022/05/08 08:35:24;;;;;;;374.20;115.67;;;;;;;;;;5054593;28;20871;-69
2022/05/08 08:37:52;;;;;;;364.00;110.67;;;;;;;;;;5054469;28;20477;-69
2022/05/08 08:40:21;;;;;;;375.27;114.47;;;;;;;;;;5053724;28;20489;-69
2022/05/08 08:42:49;;;;;;;405.20;129.10;;;;;;;;;;5054397;28;20937;-69
2022/05/08 08:48:06;;;;;;;363.70;104.87;;;;;;;;;;5053954;28;20455;-69
2022/05/08 08:50:35;;;;;;;391.03;132.97;;;;;;;;;;5041444;28;20756;-69
2022/05/08 08:53:05;;;;;;;382.80;124.83;;;;;;;;;;5055737;28;20502;-71
2022/05/08 08:55:41;;;;;;;376.90;116.70;;;;;;;;;;5062033;28;20456;-70
2022/05/08 08:58:09;;;;;;;385.20;124.47;;;;;;;;;;5074097;28;20490;-69
2022/05/08 09:00:37;;;;;;;375.23;114.43;;;;;;;;;;5073947;28;20468;-69
2022/05/08 09:03:06;;;;;;;384.70;126.30;;;;;;;;;;5073696;28;20709;-69
2022/05/08 09:05:36;;;;;;;386.80;135.67;;;;;;;;;;5073153;28;20748;-69
2022/05/08 09:08:05;;;;;;;347.87;135.57;;;;;;;;;;5074687;28;20460;-72
2022/05/08 09:10:37;;;;;;;387.73;134.70;;;;;;;;;;5050680;28;20461;-71
2022/05/08 09:13:08;;;;;;;387.07;135.70;;;;;;;;;;5052791;28;20493;-70
2022/05/08 09:15:43;;;;;;;395.10;141.30;;;;;;;;;;5052296;28;20496;-70
2022/05/08 09:18:14;;;;;;;389.10;129.00;;;;;;;;;;5053007;28;20484;-69
2022/05/08 09:20:43;;;;;;;386.87;135.43;;;;;;;;;;5052360;28;20684;-70
2022/05/08 09:23:14;;;;;;;390.93;144.00;;;;;;;;;;5060903;28;20449;-70
2022/05/08 09:26:18;;;;;;;396.17;138.63;;;;;;;;;;5058613;28;20915;-69
2022/05/08 09:28:46;;;;;;;389.47;132.40;;;;;;;;;;5069878;28;20452;-71
2022/05/08 09:31:15;;;;;;;382.47;130.67;;;;;;;;;;5072821;28;20448;-70
2022/05/08 09:33:45;;;;;;;383.70;132.27;;;;;;;;;;5073251;28;20551;-71
2022/05/08 09:36:15;;;;;;;376.27;122.37;;;;;;;;;;5074010;28;20483;-71
2022/05/08 09:38:52;;;;;;;394.03;142.87;;;;;;;;;;5051474;28;20493;-70
2022/05/08 09:41:22;;;;;;;393.07;157.90;;;;;;;;;;5052734;28;20568;-71
2022/05/08 09:43:51;;;;;;;392.27;138.87;;;;;;;;;;5052583;28;20495;-70
2022/05/08 09:46:23;;;;;;;379.73;149.03;;;;;;;;;;5035104;28;20462;-71
2022/05/08 09:49:04;;;;;;;386.83;136.30;;;;;;;;;;5052565;28;20449;-71
2022/05/08 09:51:33;;;;;;;395.83;149.80;;;;;;;;;;5051710;28;20449;-70
2022/05/08 09:54:03;;;;;;;389.13;131.60;;;;;;;;;;5052484;28;20890;-70
2022/05/08 09:56:31;;;;;;;388.10;174.07;;;;;;;;;;5052066;28;20927;-70
2022/05/08 09:59:01;;;;;;;409.90;167.67;;;;;;;;;;5051049;28;20939;-71
2022/05/08 10:01:32;;;;;;;391.37;156.30;;;;;;;;;;5052405;28;20758;-71
2022/05/08 10:04:04;;;;;;;395.23;144.57;;;;;;;;;;5052818;28;20547;-71
2022/05/08 10:06:35;;;;;;;398.77;149.67;;;;;;;;;;5054245;28;20464;-69
2022/05/08 10:14:42;;;;;;;398.90;158.97;;;;;;;;;;5011488;28;20458;-71
2022/05/08 10:17:12;;;;;;;394.03;151.40;;;;;;;;;;5043462;28;20469;-70
2022/05/08 10:19:48;;;;;;;388.27;170.80;;;;;;;;;;5056657;28;20526;-71
2022/05/08 10:22:18;;;;;;;390.03;164.50;;;;;;;;;;5056813;28;20477;-70
2022/05/08 10:24:51;;;;;;;382.63;154.43;;;;;;;;;;5055056;28;20465;-70
2022/05/08 10:27:20;;;;;;;406.93;166.43;;;;;;;;;;5055768;28;20461;-71
2022/05/08 10:30:02;;;;;;;388.57;150.67;;;;;;;;;;5055673;28;20483;-71
2022/05/08 10:32:50;;;;;;;387.37;145.87;;;;;;;;;;5055242;28;20441;-71
2022/05/08 10:35:22;;;;;;;390.73;142.20;;;;;;;;;;5035309;28;20562;-71
2022/05/08 10:38:16;;;;;;;389.90;149.97;;;;;;;;;;5034903;28;20481;-71
2022/05/08 10:40:51;;;;;;;398.83;147.07;;;;;;;;;;5035629;28;20454;-72
2022/05/08 10:43:32;;;;;;;409.37;171.80;;;;;;;;;;5037052;28;20460;-71
2022/05/08 10:46:15;;;;;;;387.60;146.07;;;;;;;;;;5055094;28;20939;-71
2022/05/08 10:48:49;;;;;;;390.60;147.53;;;;;;;;;;5046147;28;20478;-71
2022/05/08 10:51:17;;;;;;;393.60;155.07;;;;;;;;;;5047204;28;20548;-72
2022/05/08 10:53:48;;;;;;;396.67;155.33;;;;;;;;;;5056825;28;20477;-72
2022/05/08 10:56:18;;;;;;;405.57;167.30;;;;;;;;;;5067671;28;20465;-73
2022/05/08 10:58:56;;;;;;;412.63;181.80;;;;;;;;;;5076137;28;20484;-72
2022/05/08 11:01:31;;;;;;;415.10;181.30;;;;;;;;;;5060815;28;20468;-73
2022/05/08 11:04:15;;;;;;;403.93;169.30;;;;;;;;;;5076308;28;20475;-73
2022/05/08 11:06:46;;;;;;;407.47;177.53;;;;;;;;;;5040121;28;20465;-73
2022/05/08 11:09:16;;;;;;;402.63;167.40;;;;;;;;;;5040388;28;20481;-72
2022/05/08 11:11:46;;;;;;;400.23;178.47;;;;;;;;;;5055527;28;20861;-72
2022/05/08 11:14:28;;;;;;;401.47;163.63;;;;;;;;;;5057421;28;20548;-72
2022/05/08 11:16:57;;;;;;;408.80;178.33;;;;;;;;;;5055631;28;20454;-72
2022/05/08 11:19:34;;;;;;;404.10;172.47;;;;;;;;;;5054636;28;20542;-73
2022/05/08 11:22:12;;;;;;;399.10;178.33;;;;;;;;;;5053821;28;20983;-73
2022/05/08 11:24:45;;;;;;;398.73;173.43;;;;;;;;;;5055674;28;20496;-72
2022/05/08 11:27:21;;;;;;;401.73;170.87;;;;;;;;;;5055337;28;20533;-72
2022/05/08 11:38:33;;;;;;;400.33;179.83;;;;;;;;;;5053268;28;20920;-72
2022/05/08 11:41:03;;;;;;;417.27;201.50;;;;;;;;;;5054790;28;20465;-71
2022/05/08 11:43:45;;;;;;;417.20;190.10;;;;;;;;;;5054594;28;20568;-70
2022/05/08 11:46:16;;;;;;;402.27;170.50;;;;;;;;;;5057039;28;20884;-70
2022/05/08 11:48:47;;;;;;;407.67;174.50;;;;;;;;;;5061315;28;20875;-71
2022/05/08 11:51:15;;;;;;;402.20;199.07;;;;;;;;;;5057741;28;20472;-70
2022/05/08 11:53:45;;;;;;;406.80;191.90;;;;;;;;;;5058995;28;20464;-71
2022/05/08 11:56:28;;;;;;;412.40;197.47;;;;;;;;;;5058580;28;20472;-72
2022/05/08 11:59:03;;;;;;;418.97;199.57;;;;;;;;;;5053864;28;20493;-72
2022/05/08 12:01:47;;;;;;;417.37;195.50;;;;;;;;;;5052323;28;20456;-71
2022/05/08 12:04:32;;;;;;;419.17;204.70;;;;;;;;;;5053111;28;20457;-73
2022/05/08 12:07:10;;;;;;;405.57;191.37;;;;;;;;;;5057703;28;20449;-71
2022/05/08 12:09:41;;;;;;;393.83;217.30;;;;;;;;;;5047542;28;20537;-72
2022/05/08 12:12:25;;;;;;;408.10;223.17;;;;;;;;;;5050677;28;20483;-72
2022/05/08 12:14:55;;;;;;;412.87;190.30;;;;;;;;;;5059016;28;20458;-72
2022/05/08 12:17:23;;;;;;;410.57;187.93;;;;;;;;;;5061297;28;21155;-73
2022/05/08 12:19:53;;;;;;;423.77;197.97;;;;;;;;;;5066003;28;20552;-72
2022/05/08 12:22:21;;;;;;;412.13;195.57;;;;;;;;;;5053068;28;20523;-71
2022/05/08 12:24:51;;;;;;;435.47;234.03;;;;;;;;;;5058585;28;21049;-71
2022/05/08 12:27:24;;;;;;;420.57;215.07;;;;;;;;;;5053385;28;20469;-72
2022/05/08 12:29:53;;;;;;;424.17;231.47;;;;;;;;;;5053538;28;20557;-72
2022/05/08 12:32:23;;;;;;;419.00;217.37;;;;;;;;;;5053108;28;20861;-72
2022/05/08 12:34:53;;;;;;;404.00;218.37;;;;;;;;;;5052918;28;20746;-72
2022/05/08 12:37:21;;;;;;;395.00;240.70;;;;;;;;;;5052413;28;20469;-73
2022/05/08 12:39:58;;;;;;;419.70;236.03;;;;;;;;;;5052940;28;20532;-73
2022/05/08 12:42:28;;;;;;;410.17;229.80;;;;;;;;;;5053408;28;20850;-73
2022/05/08 12:44:56;;;;;;;421.47;254.77;;;;;;;;;;5053917;28;20530;-73
2022/05/08 12:47:26;;;;;;;438.53;250.63;;;;;;;;;;5053054;28;20743;-73
2022/05/08 12:49:54;;;;;;;427.60;241.43;;;;;;;;;;5052577;28;20689;-73
2022/05/08 12:52:22;;;;;;;430.83;243.53;;;;;;;;;;5050278;28;20544;-73
2022/05/08 12:54:50;;;;;;;427.37;228.43;;;;;;;;;;5050933;28;20548;-73
2022/05/08 13:00:03;;;;;;;421.40;231.73;;;;;;;;;;5051211;28;20484;-73
2022/05/08 13:02:33;;;;;;;423.70;207.97;;;;;;;;;;5053248;28;20453;-74
2022/05/08 13:05:01;;;;;;;356.37;261.83;;;;;;;;;;5052936;28;20491;-73
2022/05/08 13:07:29;;;;;;;424.37;243.87;;;;;;;;;;5053827;28;20560;-72
2022/05/08 13:10:01;;;;;;;425.87;241.27;;;;;;;;;;5059309;28;20564;-73
2022/05/08 13:12:29;;;;;;;422.80;239.30;;;;;;;;;;5053086;28;20546;-72
2022/05/08 13:14:57;;;;;;;426.67;229.23;;;;;;;;;;5052196;28;21046;-72
2022/05/08 13:17:25;;;;;;;417.70;221.03;;;;;;;;;;5051591;28;20804;-72
2022/05/08 13:19:56;;;;;;;421.97;239.50;;;;;;;;;;5050515;28;20816;-73
2022/05/08 13:22:24;;;;;;;424.80;236.80;;;;;;;;;;5051615;28;20850;-73
2022/05/08 13:25:09;;;;;;;422.03;239.23;;;;;;;;;;5052989;28;20458;-72
2022/05/08 13:27:40;;;;;;;422.83;214.33;;;;;;;;;;5051720;28;20460;-73
2022/05/08 13:30:11;;;;;;;413.33;202.80;;;;;;;;;;5053128;28;20727;-73
2022/05/08 13:32:42;;;;;;;427.97;244.80;;;;;;;;;;5040829;28;20489;-73
2022/05/08 13:35:12;;;;;;;421.30;228.60;;;;;;;;;;5047954;28;20457;-72
2022/05/08 13:37:44;;;;;;;423.77;259.80;;;;;;;;;;5053660;28;20472;-74
2022/05/08 13:40:12;;;;;;;427.97;253.17;;;;;;;;;;5072452;28;20592;-73
2022/05/08 13:42:43;;;;;;;415.33;241.27;;;;;;;;;;5059287;28;20476;-72
2022/05/08 13:45:11;;;;;;;402.83;264.47;;;;;;;;;;5056868;28;20460;-72
2022/05/08 13:47:39;;;;;;;419.20;241.43;;;;;;;;;;5056860;28;20462;-73
2022/05/08 13:50:08;;;;;;;423.43;256.93;;;;;;;;;;5056146;28;20489;-73
2022/05/08 13:52:37;;;;;;;433.53;254.63;;;;;;;;;;5055891;28;20544;-73
2022/05/08 13:55:17;;;;;;;428.60;234.17;;;;;;;;;;5055379;28;20519;-73
2022/05/08 13:57:46;;;;;;;425.17;245.93;;;;;;;;;;5056181;28;20966;-73
2022/05/08 14:00:15;;;;;;;423.87;245.23;;;;;;;;;;5055187;28;20565;-72
2022/05/08 14:02:44;;;;;;;415.33;220.30;;;;;;;;;;5056909;28;20469;-72
2022/05/08 14:05:12;;;;;;;429.63;245.83;;;;;;;;;;5056308;28;20551;-74
2022/05/08 14:07:51;;;;;;;388.50;247.87;;;;;;;;;;5055210;28;20768;-72
2022/05/08 14:10:22;;;;;;;429.37;282.73;;;;;;;;;;5056837;28;20460;-74
2022/05/08 14:12:50;;;;;;;425.13;240.30;;;;;;;;;;5056817;28;20796;-73
2022/05/08 14:15:21;;;;;;;428.23;251.13;;;;;;;;;;5051908;28;20957;-74
2022/05/08 14:17:49;;;;;;;425.60;247.20;;;;;;;;;;5055437;28;20831;-73
2022/05/08 14:20:16;;;;;;;428.67;243.97;;;;;;;;;;5056265;28;20578;-72
2022/05/08 14:22:46;;;;;;;425.63;256.43;;;;;;;;;;5055252;28;20455;-73
2022/05/08 14:25:15;;;;;;;427.07;238.97;;;;;;;;;;5054735;28;20483;-71
2022/05/08 14:27:43;;;;;;;430.43;249.63;;;;;;;;;;5054956;28;20472;-75
2022/05/08 14:30:14;;;;;;;425.27;238.73;;;;;;;;;;5055466;28;20500;-74
2022/05/08 14:38:30;;;;;;;415.60;234.73;;;;;;;;;;5055253;28;20446;-74
2022/05/08 14:40:59;;;;;;;422.90;237.17;;;;;;;;;;5056600;28;20441;-72
2022/05/08 14:43:28;;;;;;;412.20;218.37;;;;;;;;;;5055639;28;20465;-71
2022/05/08 14:46:01;;;;;;;422.53;238.13;;;;;;;;;;5056312;28;20449;-72
2022/05/08 14:48:30;;;;;;;431.77;255.00;;;;;;;;;;5057185;28;20465;-72
2022/05/08 14:51:18;;;;;;;420.57;244.60;;;;;;;;;;5072703;28;20444;-73
2022/05/08 14:53:50;;;;;;;425.03;257.53;;;;;;;;;;5073598;28;20470;-73
2022/05/08 14:59:19;;;;;;;427.33;265.70;;;;;;;;;;5070199;28;20931;-73
2022/05/08 15:01:51;;;;;;;421.30;237.13;;;;;;;;;;5075112;28;20908;-73
2022/05/08 15:04:19;;;;;;;427.80;261.77;;;;;;;;;;5074965;28;20736;-74
2022/05/08 15:06:47;;;;;;;425.00;241.57;;;;;;;;;;5074693;28;20468;-73
2022/05/08 15:09:22;;;;;;;424.53;231.90;;;;;;;;;;5074431;28;20468;-74
2022/05/08 15:11:50;;;;;;;424.90;256.90;;;;;;;;;;5075688;28;20558;-73